Aviation Digital Data Service (ADDS)

Output produced by METARs form (0019 UTC 26 June 2017)
found at http://aviationweather.gov/adds/metars/
 
KBAF 252333Z 2600/2624 19009G19KT 4SM TSRA BKN045CB 
     FM260100 22008KT P6SM VCSH BKN060 
     FM260300 24007KT P6SM SCT060 
     FM261500 26009KT P6SM FEW050 
     FM262000 24009KT P6SM VCSH BKN050 
     FM262300 25008KT P6SM BKN050